createdAt,value
2018-12-05T00:00:20.733Z,98.20
2018-12-05T00:02:48.260Z,98.10
2018-12-05T00:05:16.013Z,98.20
2018-12-05T00:07:43.528Z,98.20
2018-12-05T00:10:11.062Z,98.10
2018-12-05T00:12:38.581Z,98.20
2018-12-05T00:15:06.228Z,98.10
2018-12-05T00:17:34.226Z,98.20
2018-12-05T00:20:01.720Z,98.20
2018-12-05T00:22:29.556Z,98.20
2018-12-05T00:24:57.062Z,98.30
2018-12-05T00:27:25.947Z,98.20
2018-12-05T00:29:53.458Z,98.30
2018-12-05T00:32:20.978Z,98.20
2018-12-05T00:34:49.303Z,98.20
2018-12-05T00:37:16.804Z,98.20
2018-12-05T00:39:44.324Z,98.20
2018-12-05T00:42:11.861Z,98.20
2018-12-05T00:44:39.375Z,98.10
2018-12-05T00:47:06.906Z,98.10
2018-12-05T00:49:34.491Z,98.10
2018-12-05T00:52:01.991Z,98.00
2018-12-05T00:54:29.513Z,98.00
2018-12-05T00:56:57.055Z,98.00
2018-12-05T00:59:24.565Z,98.00
2018-12-05T01:01:52.078Z,98.10
2018-12-05T01:04:19.600Z,98.10
2018-12-05T01:06:47.111Z,98.20
2018-12-05T01:09:14.603Z,98.20
2018-12-05T01:11:42.126Z,98.20
2018-12-05T01:14:09.710Z,98.20
2018-12-05T01:16:38.077Z,98.10
2018-12-05T01:19:05.576Z,98.10
2018-12-05T01:21:33.103Z,98.20
2018-12-05T01:24:00.619Z,98.20
2018-12-05T01:26:28.100Z,98.20
2018-12-05T01:28:55.617Z,98.20
2018-12-05T01:31:23.113Z,98.40
2018-12-05T01:33:50.626Z,98.40
2018-12-05T01:36:18.118Z,98.30
2018-12-05T01:38:46.580Z,98.30
2018-12-05T01:41:14.089Z,98.30
2018-12-05T01:43:47.444Z,98.30
2018-12-05T01:46:14.973Z,98.30
2018-12-05T01:48:42.478Z,98.30
2018-12-05T01:51:09.969Z,98.40
2018-12-05T01:53:37.521Z,98.40
2018-12-05T01:56:05.123Z,98.40
2018-12-05T01:58:32.883Z,98.50
2018-12-05T02:01:00.437Z,98.50
2018-12-05T02:03:29.310Z,98.50
2018-12-05T02:05:56.859Z,98.40
2018-12-05T02:08:24.435Z,98.40
2018-12-05T02:10:52.015Z,98.40
2018-12-05T02:13:20.932Z,98.40
2018-12-05T02:15:48.461Z,98.40
2018-12-05T02:18:15.971Z,98.40
2018-12-05T02:20:43.455Z,98.40
2018-12-05T02:23:11.029Z,98.40
2018-12-05T02:25:39.199Z,98.40
2018-12-05T02:28:06.700Z,98.40
2018-12-05T02:30:34.343Z,98.50
2018-12-05T02:33:01.859Z,98.50
2018-12-05T02:35:29.403Z,98.50
2018-12-05T02:37:56.897Z,98.50
2018-12-05T02:40:24.394Z,98.50
2018-12-05T02:42:51.898Z,98.50
2018-12-05T02:45:19.488Z,98.50
2018-12-05T02:47:47.026Z,98.50
2018-12-05T02:50:14.520Z,98.50
2018-12-05T02:52:42.007Z,98.60
2018-12-05T02:55:10.197Z,98.50
2018-12-05T02:57:37.723Z,98.50
2018-12-05T03:00:07.589Z,98.50
2018-12-05T03:02:35.113Z,98.50
2018-12-05T03:05:02.676Z,98.40
2018-12-05T03:07:31.060Z,98.50
2018-12-05T03:09:58.560Z,98.30
2018-12-05T03:12:26.060Z,98.40
2018-12-05T03:14:53.582Z,98.30
2018-12-05T03:17:21.071Z,98.50
2018-12-05T03:19:48.596Z,98.50
2018-12-05T03:22:16.109Z,98.50
2018-12-05T03:24:43.617Z,98.60
2018-12-05T03:27:11.141Z,98.60
2018-12-05T03:29:38.642Z,98.60
2018-12-05T03:32:06.168Z,98.60
2018-12-05T03:34:35.036Z,98.50
2018-12-05T03:37:02.567Z,98.50
2018-12-05T03:39:30.189Z,98.50
2018-12-05T03:41:57.714Z,98.50
2018-12-05T03:44:25.224Z,98.50
2018-12-05T03:46:52.735Z,98.50
2018-12-05T03:49:22.037Z,98.50
2018-12-05T03:51:49.570Z,98.40
2018-12-05T03:54:17.150Z,98.40
2018-12-05T03:56:56.370Z,98.30
2018-12-05T03:59:23.941Z,98.30
2018-12-05T04:01:55.091Z,98.30
2018-12-05T04:04:29.148Z,98.30
2018-12-05T04:06:56.651Z,98.30
2018-12-05T04:09:24.185Z,98.70
2018-12-05T04:11:51.867Z,98.40
2018-12-05T04:14:19.530Z,98.40
2018-12-05T04:16:47.037Z,98.40
2018-12-05T04:19:14.642Z,98.40
2018-12-05T04:21:42.150Z,98.50
2018-12-05T04:24:09.637Z,98.50
2018-12-05T04:26:37.183Z,98.50
2018-12-05T04:29:06.853Z,98.50
2018-12-05T04:31:34.334Z,98.80
2018-12-05T04:34:01.860Z,98.50
2018-12-05T04:36:29.369Z,98.50
2018-12-05T04:38:56.947Z,98.50
2018-12-05T04:41:24.438Z,98.60
2018-12-05T04:43:52.146Z,98.50
2018-12-05T04:46:19.660Z,98.50
2018-12-05T04:48:47.824Z,98.60
2018-12-05T04:51:16.313Z,98.50
2018-12-05T04:53:43.805Z,98.50
2018-12-05T04:56:11.353Z,98.60
2018-12-05T04:58:41.662Z,98.50
2018-12-05T05:01:09.162Z,98.50
2018-12-05T05:03:36.902Z,98.50
2018-12-05T05:06:04.398Z,98.60
2018-12-05T05:08:31.909Z,98.70
2018-12-05T05:10:59.461Z,98.50
2018-12-05T05:13:27.014Z,98.50
2018-12-05T05:15:54.933Z,98.50
2018-12-05T05:18:22.469Z,98.50
2018-12-05T05:20:49.998Z,98.60
2018-12-05T05:23:18.937Z,98.60
2018-12-05T05:25:59.179Z,98.60
2018-12-05T05:28:27.999Z,98.60
2018-12-05T05:30:55.506Z,98.60
2018-12-05T05:33:23.014Z,98.60
2018-12-05T05:35:50.543Z,98.60
2018-12-05T05:38:19.535Z,98.60
2018-12-05T05:40:47.056Z,98.60
2018-12-05T05:43:15.445Z,98.60
2018-12-05T05:45:42.953Z,98.60
2018-12-05T05:48:10.499Z,98.60
2018-12-05T05:50:38.699Z,98.70
2018-12-05T05:53:06.266Z,98.70
2018-12-05T05:55:33.790Z,98.70
2018-12-05T05:58:01.279Z,98.70
2018-12-05T06:00:28.801Z,98.70
2018-12-05T06:02:56.319Z,98.70
2018-12-05T06:05:37.101Z,98.70
2018-12-05T06:08:04.941Z,98.60
2018-12-05T06:10:32.432Z,98.70
2018-12-05T06:13:00.366Z,98.60
2018-12-05T06:15:27.893Z,98.60
2018-12-05T06:17:55.372Z,98.60
2018-12-05T06:20:36.219Z,98.60
2018-12-05T06:23:04.033Z,98.60
2018-12-05T06:25:31.637Z,98.50
2018-12-05T06:27:59.665Z,98.50
2018-12-05T06:30:27.174Z,98.50
2018-12-05T06:32:54.737Z,98.50
2018-12-05T06:35:22.909Z,98.50
2018-12-05T06:37:50.480Z,98.50
2018-12-05T06:40:18.030Z,98.50
2018-12-05T06:42:45.559Z,98.50
2018-12-05T06:45:13.833Z,98.80
2018-12-05T06:47:42.827Z,98.50
2018-12-05T06:50:10.318Z,98.40
2018-12-05T06:52:40.591Z,98.50
2018-12-05T06:55:09.725Z,98.40
2018-12-05T06:57:39.024Z,98.40
2018-12-05T07:00:08.168Z,98.40
2018-12-05T07:02:36.027Z,98.40
2018-12-05T07:05:03.928Z,98.50
2018-12-05T07:07:31.495Z,98.40
2018-12-05T07:10:00.495Z,98.80
2018-12-05T07:12:28.079Z,98.50
2018-12-05T07:14:55.605Z,98.50
2018-12-05T07:17:26.408Z,98.50
2018-12-05T07:19:53.939Z,98.50
2018-12-05T07:22:21.464Z,98.50
2018-12-05T07:24:49.007Z,98.40
2018-12-05T07:27:20.477Z,98.40
2018-12-05T07:29:47.978Z,98.50
2018-12-05T07:32:15.485Z,98.40
2018-12-05T07:34:44.061Z,98.50
2018-12-05T07:37:11.581Z,98.50
2018-12-05T07:39:39.090Z,98.50
2018-12-05T07:42:06.605Z,98.60
2018-12-05T07:44:34.103Z,98.50
2018-12-05T07:47:04.886Z,98.50
2018-12-05T07:49:32.415Z,98.40
2018-12-05T07:52:00.070Z,98.40
2018-12-05T07:54:27.605Z,98.40
2018-12-05T07:56:55.134Z,98.40
2018-12-05T07:59:22.637Z,98.30
2018-12-05T08:01:50.178Z,98.30
2018-12-05T08:04:17.657Z,98.30
2018-12-05T08:06:45.641Z,98.20
2018-12-05T08:09:13.184Z,98.20
2018-12-05T08:11:40.696Z,98.20
2018-12-05T08:14:08.257Z,98.30
2018-12-05T08:16:35.792Z,98.30
2018-12-05T08:19:03.320Z,98.40
2018-12-05T08:21:30.828Z,98.50
2018-12-05T08:23:58.341Z,98.50
2018-12-05T08:26:27.083Z,98.50
2018-12-05T08:28:54.677Z,98.50
2018-12-05T08:31:23.183Z,98.60
2018-12-05T08:33:50.711Z,98.60
2018-12-05T08:36:18.295Z,98.60
2018-12-05T08:38:45.833Z,98.60
2018-12-05T08:41:13.674Z,98.60
2018-12-05T08:43:41.151Z,98.60
2018-12-05T08:46:20.487Z,98.70
2018-12-05T08:48:49.563Z,98.70
2018-12-05T08:51:17.091Z,98.70
2018-12-05T08:53:45.266Z,98.70
2018-12-05T08:56:13.309Z,98.70
2018-12-05T08:58:41.807Z,98.70
2018-12-05T09:01:09.438Z,98.70
2018-12-05T09:03:37.761Z,98.70
2018-12-05T09:06:08.245Z,98.70
2018-12-05T09:08:35.763Z,98.70
2018-12-05T09:11:04.839Z,98.60
2018-12-05T09:13:32.438Z,98.50
2018-12-05T09:15:59.930Z,98.40
2018-12-05T09:18:28.800Z,98.50
2018-12-05T09:20:56.335Z,98.50
2018-12-05T09:23:23.835Z,98.50
2018-12-05T09:25:51.969Z,98.40
2018-12-05T09:28:19.506Z,98.30
2018-12-05T09:30:47.021Z,98.20
2018-12-05T09:33:14.571Z,98.30
2018-12-05T09:35:42.069Z,98.30
2018-12-05T09:38:09.585Z,98.20
2018-12-05T09:40:37.101Z,98.30
2018-12-05T09:43:04.607Z,98.20
2018-12-05T09:45:32.113Z,98.20
2018-12-05T09:47:59.691Z,98.40
2018-12-05T09:50:27.195Z,98.40
2018-12-05T09:52:54.965Z,98.30
2018-12-05T09:55:22.480Z,98.40
2018-12-05T09:57:50.745Z,98.40
2018-12-05T10:00:19.583Z,98.40
2018-12-05T10:02:47.090Z,98.30
2018-12-05T10:05:16.279Z,98.30
2018-12-05T10:07:43.814Z,98.30
2018-12-05T10:10:11.303Z,98.30
2018-12-05T10:12:38.856Z,98.40
2018-12-05T10:15:06.560Z,98.40
2018-12-05T10:17:34.045Z,98.40
2018-12-05T10:20:02.522Z,98.40
2018-12-05T10:22:30.008Z,98.40
2018-12-05T10:24:57.492Z,98.40
2018-12-05T10:27:25.563Z,98.40
2018-12-05T10:29:53.070Z,98.30
2018-12-05T10:32:20.738Z,98.40
2018-12-05T10:34:48.254Z,98.40
2018-12-05T10:37:15.903Z,98.40
2018-12-05T10:39:43.406Z,98.50
2018-12-05T10:42:13.949Z,98.50
2018-12-05T10:44:41.837Z,98.50
2018-12-05T10:47:09.362Z,98.50
2018-12-05T10:49:36.901Z,98.60
2018-12-05T10:52:04.389Z,98.60
2018-12-05T10:54:32.081Z,98.60
2018-12-05T10:57:00.120Z,98.80
2018-12-05T10:59:27.606Z,98.70
2018-12-05T11:02:00.755Z,98.70
2018-12-05T11:04:35.887Z,98.70
2018-12-05T11:07:11.797Z,98.70
2018-12-05T11:09:45.297Z,98.80
2018-12-05T11:18:23.998Z,99.00
2018-12-05T11:20:57.194Z,99.10
2018-12-05T11:23:30.458Z,99.20
2018-12-05T11:25:59.939Z,99.20
2018-12-05T11:28:27.453Z,99.30
2018-12-05T11:30:54.945Z,99.30
2018-12-05T11:33:22.470Z,99.30
2018-12-05T11:35:49.985Z,99.30
2018-12-05T11:38:17.492Z,99.40
2018-12-05T11:40:45.018Z,99.50
2018-12-05T11:43:12.501Z,99.60
2018-12-05T11:45:39.983Z,99.60
2018-12-05T11:48:07.489Z,99.50
2018-12-05T11:50:35.573Z,99.50
2018-12-05T11:53:03.101Z,99.50
2018-12-05T11:55:31.500Z,99.50
2018-12-05T11:57:58.986Z,99.60
2018-12-05T12:00:26.513Z,99.70
2018-12-05T12:02:54.327Z,99.70
2018-12-05T12:05:21.835Z,99.70
2018-12-05T12:08:00.776Z,99.70
2018-12-05T12:10:34.089Z,99.70
2018-12-05T12:13:04.978Z,99.70
2018-12-05T12:15:40.406Z,99.70
2018-12-05T12:18:23.360Z,99.70
2018-12-05T12:20:51.686Z,99.80
2018-12-05T12:23:19.182Z,99.80
2018-12-05T12:25:47.737Z,99.60
2018-12-05T12:28:17.332Z,99.90
2018-12-05T12:30:45.254Z,99.90
2018-12-05T12:33:12.800Z,99.90
2018-12-05T12:35:40.334Z,99.90
2018-12-05T12:38:08.104Z,99.90
2018-12-05T12:40:35.604Z,99.90
2018-12-05T12:43:03.102Z,99.90
2018-12-05T12:45:30.611Z,99.90
2018-12-05T12:47:58.176Z,99.90
2018-12-05T12:50:25.718Z,99.90
2018-12-05T12:52:53.229Z,99.90
2018-12-05T12:55:22.093Z,99.90
2018-12-05T12:57:49.599Z,99.80
2018-12-05T13:00:17.257Z,99.70
2018-12-05T13:02:44.760Z,99.80
2018-12-05T13:05:13.361Z,99.80
2018-12-05T13:07:40.935Z,99.80
2018-12-05T13:10:08.481Z,99.80
2018-12-05T13:12:36.183Z,99.80
2018-12-05T13:15:05.852Z,99.80
2018-12-05T13:17:33.332Z,99.80
2018-12-05T13:20:01.423Z,99.80
2018-12-05T13:22:28.956Z,99.80
2018-12-05T13:24:56.470Z,99.80
2018-12-05T13:27:25.693Z,99.80
2018-12-05T13:29:53.187Z,99.80
2018-12-05T13:32:20.684Z,99.70
2018-12-05T13:34:48.400Z,99.90
2018-12-05T13:37:15.918Z,99.70
2018-12-05T13:39:43.443Z,99.60
2018-12-05T13:42:11.024Z,99.60
2018-12-05T13:44:38.853Z,99.60
2018-12-05T13:47:07.285Z,99.60
2018-12-05T13:49:34.849Z,99.60
2018-12-05T13:52:02.347Z,99.60
2018-12-05T13:54:30.513Z,99.50
2018-12-05T13:56:58.021Z,99.40
2018-12-05T14:02:25.733Z,99.40
2018-12-05T14:04:55.266Z,99.30
2018-12-05T14:07:22.877Z,99.30
2018-12-05T14:13:03.532Z,99.30
2018-12-05T14:15:32.023Z,99.30
2018-12-05T14:18:01.761Z,99.30
2018-12-05T14:20:29.068Z,99.20
2018-12-05T14:22:56.560Z,99.40
2018-12-05T14:25:25.023Z,99.20
2018-12-05T14:27:52.555Z,99.20
2018-12-05T14:30:20.055Z,99.30
2018-12-05T14:32:47.567Z,99.40
2018-12-05T14:35:15.644Z,99.40
2018-12-05T14:37:43.135Z,99.40
2018-12-05T14:40:10.633Z,99.20
2018-12-05T14:42:45.066Z,99.10
2018-12-05T14:45:12.701Z,99.20
2018-12-05T14:47:40.249Z,99.10
2018-12-05T14:50:07.929Z,99.20
2018-12-05T14:52:35.440Z,99.10
2018-12-05T14:55:03.137Z,99.20
2018-12-05T14:57:30.888Z,99.20
2018-12-05T14:59:58.498Z,99.20
2018-12-05T15:02:27.247Z,99.30
2018-12-05T15:04:54.778Z,99.30
2018-12-05T15:07:22.284Z,99.60
2018-12-05T15:09:49.800Z,99.20
2018-12-05T15:12:18.792Z,99.20
2018-12-05T15:14:46.325Z,99.20
2018-12-05T15:17:13.814Z,99.20
2018-12-05T15:19:41.316Z,99.20
2018-12-05T15:22:08.841Z,99.20
2018-12-05T15:24:36.334Z,99.20
2018-12-05T15:27:04.004Z,99.20
2018-12-05T15:29:31.487Z,99.20
2018-12-05T15:31:59.646Z,99.20
2018-12-05T15:34:27.242Z,99.50
2018-12-05T15:36:54.754Z,99.30
2018-12-05T15:39:22.298Z,99.20
2018-12-05T15:41:50.587Z,99.30
2018-12-05T15:44:19.330Z,99.20
2018-12-05T15:46:47.490Z,99.30
2018-12-05T15:49:15.403Z,99.30
2018-12-05T15:51:42.930Z,99.30
2018-12-05T15:54:10.582Z,99.30
2018-12-05T15:56:38.794Z,99.30
2018-12-05T15:59:20.812Z,99.40
2018-12-05T16:01:48.700Z,99.40
2018-12-05T16:04:16.283Z,99.40
2018-12-05T16:06:47.140Z,99.40
2018-12-05T16:09:14.625Z,99.40
2018-12-05T16:11:42.164Z,99.40
2018-12-05T16:14:10.232Z,99.50
2018-12-05T16:16:37.926Z,99.40
2018-12-05T16:19:05.432Z,99.40
2018-12-05T16:21:32.929Z,99.40
2018-12-05T16:24:00.446Z,99.40
2018-12-05T16:26:27.939Z,99.50
2018-12-05T16:28:56.253Z,99.40
2018-12-05T16:31:24.097Z,99.50
2018-12-05T16:33:52.306Z,99.50
2018-12-05T16:36:20.052Z,99.50
2018-12-05T16:38:47.578Z,99.40
2018-12-05T16:41:15.064Z,99.80
2018-12-05T16:43:42.649Z,99.40
2018-12-05T16:46:10.144Z,99.50
2018-12-05T16:48:37.672Z,99.50
2018-12-05T16:51:05.169Z,99.60
2018-12-05T16:53:32.686Z,99.50
2018-12-05T16:56:00.220Z,99.40
2018-12-05T16:58:28.402Z,99.40
2018-12-05T17:00:55.926Z,99.50
2018-12-05T17:03:23.423Z,99.50
2018-12-05T17:05:50.919Z,99.50
2018-12-05T17:08:18.464Z,99.80
2018-12-05T17:10:46.060Z,99.30
2018-12-05T17:13:14.875Z,99.50
2018-12-05T17:15:42.412Z,99.50
2018-12-05T17:18:10.107Z,99.50
2018-12-05T17:20:37.619Z,99.50
2018-12-05T17:23:05.126Z,99.60
2018-12-05T17:25:32.686Z,99.60
2018-12-05T17:28:00.171Z,99.60
2018-12-05T17:30:37.457Z,99.90
2018-12-05T17:33:33.885Z,99.60
2018-12-05T17:36:03.153Z,99.50
2018-12-05T17:38:30.943Z,99.50
2018-12-05T17:40:58.508Z,99.50
2018-12-05T17:43:26.084Z,99.50
2018-12-05T17:45:53.573Z,99.50
2018-12-05T17:48:21.100Z,99.50
2018-12-05T17:50:48.614Z,99.50
2018-12-05T17:53:16.163Z,99.50
2018-12-05T17:55:44.151Z,99.60
2018-12-05T17:58:13.212Z,99.50
2018-12-05T18:00:42.264Z,99.50
2018-12-05T18:03:10.391Z,99.50
2018-12-05T18:05:38.608Z,99.50
2018-12-05T18:08:06.787Z,99.50
2018-12-05T18:10:35.127Z,99.50
2018-12-05T18:13:02.662Z,99.50
2018-12-05T18:15:30.153Z,99.50
2018-12-05T18:18:00.611Z,99.50
2018-12-05T18:20:28.239Z,99.50
2018-12-05T18:22:56.036Z,99.50
2018-12-05T18:25:23.661Z,99.40
2018-12-05T18:27:52.466Z,99.40
2018-12-05T18:30:20.004Z,99.50
2018-12-05T18:32:47.519Z,99.50
2018-12-05T18:35:15.043Z,99.40
2018-12-05T18:37:42.570Z,99.40
2018-12-05T18:40:10.866Z,99.30
2018-12-05T18:42:38.429Z,99.30
2018-12-05T18:45:06.908Z,99.20
2018-12-05T18:47:35.177Z,99.30
2018-12-05T18:50:03.643Z,99.30
2018-12-05T18:52:31.132Z,99.30
2018-12-05T18:55:01.400Z,99.30
2018-12-05T18:57:28.926Z,99.30
2018-12-05T19:00:01.256Z,99.30
2018-12-05T19:02:25.968Z,99.30
2018-12-05T19:04:54.810Z,99.30
2018-12-05T19:07:22.708Z,99.30
2018-12-05T19:09:50.217Z,99.20
2018-12-05T19:12:17.742Z,99.20
2018-12-05T19:14:46.174Z,99.20
2018-12-05T19:17:13.696Z,99.20
2018-12-05T19:19:41.235Z,99.20
2018-12-05T19:22:08.806Z,99.10
2018-12-05T19:24:36.493Z,99.10
2018-12-05T19:27:04.106Z,99.10
2018-12-05T19:29:31.642Z,99.10
2018-12-05T19:31:59.128Z,98.90
2018-12-05T19:34:27.010Z,99.00
2018-12-05T19:36:54.533Z,98.90
2018-12-05T19:39:22.045Z,99.00
2018-12-05T19:41:49.568Z,99.20
2018-12-05T19:44:18.400Z,98.90
2018-12-05T19:46:45.908Z,98.80
2018-12-05T19:49:13.412Z,98.90
2018-12-05T19:51:40.982Z,98.90
2018-12-05T19:54:08.506Z,98.60
2018-12-05T19:56:36.035Z,98.70
2018-12-05T19:59:03.776Z,98.80
2018-12-05T20:01:31.306Z,98.80
2018-12-05T20:04:07.809Z,98.80
2018-12-05T20:06:46.435Z,98.80
2018-12-05T20:09:14.546Z,98.50
2018-12-05T20:11:42.068Z,98.80
2018-12-05T20:14:11.590Z,98.70
2018-12-05T20:16:39.113Z,98.80
2018-12-05T20:19:06.686Z,98.70
2018-12-05T20:21:34.308Z,98.70
2018-12-05T20:24:01.819Z,98.80
2018-12-05T20:26:29.373Z,98.70
2018-12-05T20:28:56.995Z,98.70
2018-12-05T20:31:24.853Z,98.70
2018-12-05T20:33:52.374Z,98.70
2018-12-05T20:36:19.984Z,98.60
2018-12-05T20:38:47.787Z,98.50
2018-12-05T20:41:15.295Z,98.50
2018-12-05T20:43:42.889Z,98.50
2018-12-05T20:46:10.419Z,98.50
2018-12-05T20:48:38.192Z,98.50
2018-12-05T20:51:05.729Z,98.50
2018-12-05T20:53:33.226Z,98.40
2018-12-05T20:56:00.758Z,98.50
2018-12-05T20:58:28.323Z,98.40
2018-12-05T21:00:56.775Z,98.40
2018-12-05T21:03:24.293Z,98.20
2018-12-05T21:05:51.783Z,98.40
2018-12-05T21:08:19.928Z,98.30
2018-12-05T21:10:47.474Z,98.30
2018-12-05T21:13:17.958Z,98.30
2018-12-05T21:15:47.162Z,98.30
2018-12-05T21:18:16.578Z,98.40
2018-12-05T21:20:44.090Z,98.30
2018-12-05T21:23:11.730Z,98.20
2018-12-05T21:25:39.261Z,98.20
2018-12-05T21:28:06.751Z,98.30
2018-12-05T21:30:34.303Z,98.40
2018-12-05T21:33:02.527Z,98.40
2018-12-05T21:35:30.418Z,98.70
2018-12-05T21:37:57.954Z,98.40
2018-12-05T21:40:25.481Z,98.40
2018-12-05T21:42:53.000Z,98.40
2018-12-05T21:45:20.483Z,98.30
2018-12-05T21:47:47.981Z,98.40
2018-12-05T21:50:15.515Z,98.50
2018-12-05T21:52:43.431Z,98.50
2018-12-05T21:55:11.139Z,98.50
2018-12-05T21:57:38.632Z,98.50
2018-12-05T22:00:07.901Z,98.50
2018-12-05T22:02:35.400Z,98.40
2018-12-05T22:05:03.927Z,98.40
2018-12-05T22:07:31.426Z,98.30
2018-12-05T22:10:00.332Z,98.40
2018-12-05T22:12:27.881Z,98.50
2018-12-05T22:14:55.395Z,98.50
2018-12-05T22:17:22.927Z,98.50
2018-12-05T22:19:50.473Z,98.60
2018-12-05T22:22:17.973Z,98.90
2018-12-05T22:24:45.498Z,98.50
2018-12-05T22:27:13.060Z,98.50
2018-12-05T22:29:40.593Z,98.50
2018-12-05T22:32:08.316Z,98.50
2018-12-05T22:34:35.892Z,98.40
2018-12-05T22:37:03.409Z,98.40
2018-12-05T22:39:31.062Z,98.50
2018-12-05T22:41:58.582Z,98.50
2018-12-05T22:44:26.172Z,98.40
2018-12-05T22:46:53.695Z,98.40
2018-12-05T22:49:21.209Z,98.50
2018-12-05T22:51:53.674Z,98.50
2018-12-05T22:54:21.197Z,98.50
2018-12-05T22:57:00.578Z,98.90
2018-12-05T22:59:28.437Z,98.60
2018-12-05T23:01:55.969Z,98.60
2018-12-05T23:04:23.462Z,98.60
2018-12-05T23:06:50.999Z,98.30
2018-12-05T23:09:18.515Z,98.50
2018-12-05T23:11:46.061Z,98.60
2018-12-05T23:14:13.577Z,98.50
2018-12-05T23:16:41.082Z,98.60
2018-12-05T23:19:08.669Z,98.60
2018-12-05T23:21:36.253Z,98.60
2018-12-05T23:24:03.774Z,98.60
2018-12-05T23:26:31.275Z,98.60
2018-12-05T23:28:58.882Z,98.50
2018-12-05T23:31:26.751Z,98.50
2018-12-05T23:33:54.275Z,98.60
2018-12-05T23:36:21.782Z,98.70
2018-12-05T23:38:50.701Z,98.70
2018-12-05T23:41:18.790Z,98.70
2018-12-05T23:43:52.277Z,98.70
2018-12-05T23:46:19.806Z,98.70
2018-12-05T23:48:47.347Z,98.70
2018-12-05T23:51:14.892Z,98.70
2018-12-05T23:53:42.502Z,98.70
2018-12-05T23:56:18.933Z,98.70
2018-12-05T23:58:46.827Z,98.70
